createdAt,value
2018-12-14T00:02:25.066Z,5.00
2018-12-14T00:04:52.710Z,5.10
2018-12-14T00:07:20.261Z,4.90
2018-12-14T00:09:47.950Z,4.70
2018-12-14T00:12:15.607Z,4.80
2018-12-14T00:14:43.176Z,4.70
2018-12-14T00:17:10.736Z,4.60
2018-12-14T00:19:38.418Z,4.70
2018-12-14T00:22:05.950Z,4.90
2018-12-14T00:24:33.513Z,4.80
2018-12-14T00:27:01.357Z,4.50
2018-12-14T00:29:28.906Z,4.70
2018-12-14T00:31:56.517Z,4.80
2018-12-14T00:34:24.082Z,4.60
2018-12-14T00:36:51.614Z,4.70
2018-12-14T00:39:19.172Z,4.80
2018-12-14T00:41:51.988Z,5.20
2018-12-14T00:44:16.350Z,4.90
2018-12-14T00:46:44.789Z,5.00
2018-12-14T00:49:12.393Z,5.00
2018-12-14T00:51:39.950Z,5.00
2018-12-14T00:54:07.737Z,5.20
2018-12-14T00:56:35.321Z,5.20
2018-12-14T00:59:02.838Z,5.20
2018-12-14T01:01:30.409Z,5.40
2018-12-14T01:03:57.968Z,5.30
2018-12-14T01:06:25.622Z,5.10
2018-12-14T01:08:53.180Z,5.10
2018-12-14T01:11:20.970Z,5.20
2018-12-14T01:13:48.711Z,5.60
2018-12-14T01:16:16.247Z,5.50
2018-12-14T01:18:43.766Z,5.40
2018-12-14T01:21:11.359Z,5.40
2018-12-14T01:23:39.072Z,5.40
2018-12-14T01:26:06.614Z,5.50
2018-12-14T01:28:34.185Z,5.40
2018-12-14T01:31:01.751Z,5.40
2018-12-14T01:33:29.327Z,5.50
2018-12-14T01:35:56.999Z,5.50
2018-12-14T01:38:24.512Z,5.30
2018-12-14T01:40:52.100Z,5.40
2018-12-14T01:43:19.620Z,5.40
2018-12-14T01:45:47.306Z,5.40
2018-12-14T01:48:14.844Z,5.40
2018-12-14T01:50:42.427Z,5.70
2018-12-14T01:53:09.970Z,5.40
2018-12-14T01:55:37.962Z,5.40
2018-12-14T01:58:05.590Z,5.50
2018-12-14T02:00:33.253Z,5.80
2018-12-14T02:03:00.999Z,5.70
2018-12-14T02:05:28.610Z,5.70
2018-12-14T02:07:56.261Z,5.40
2018-12-14T02:10:23.838Z,5.40
2018-12-14T02:12:51.434Z,5.20
2018-12-14T02:15:18.980Z,5.30
2018-12-14T02:17:46.563Z,5.30
2018-12-14T02:20:14.234Z,5.40
2018-12-14T02:22:41.878Z,5.30
2018-12-14T02:25:09.422Z,5.50
2018-12-14T02:27:36.987Z,5.40
2018-12-14T02:30:16.536Z,5.50
2018-12-14T02:32:44.205Z,5.30
2018-12-14T02:35:11.722Z,5.40
2018-12-14T02:37:39.329Z,5.20
2018-12-14T02:40:07.091Z,5.50
2018-12-14T02:42:34.846Z,5.60
2018-12-14T02:45:02.629Z,5.30
2018-12-14T02:47:31.323Z,5.40
2018-12-14T02:49:58.921Z,5.40
2018-12-14T02:52:26.619Z,5.50
2018-12-14T02:54:54.151Z,5.50
2018-12-14T02:57:21.768Z,5.40
2018-12-14T02:59:49.313Z,5.30
2018-12-14T03:02:16.906Z,5.40
2018-12-14T03:04:44.470Z,5.10
2018-12-14T03:07:12.052Z,5.40
2018-12-14T03:09:39.795Z,5.60
2018-12-14T03:12:07.346Z,5.80
2018-12-14T03:14:35.089Z,5.50
2018-12-14T03:17:02.754Z,5.40
2018-12-14T03:19:30.284Z,5.40
2018-12-14T03:21:57.874Z,5.70
2018-12-14T03:24:25.399Z,5.50
2018-12-14T03:26:53.055Z,5.70
2018-12-14T03:29:20.685Z,5.80
2018-12-14T03:31:48.337Z,5.80
2018-12-14T03:34:15.890Z,5.60
2018-12-14T03:36:43.482Z,5.60
2018-12-14T03:39:11.185Z,6.00
2018-12-14T03:41:38.697Z,5.60
2018-12-14T03:44:06.285Z,5.80
2018-12-14T03:46:34.036Z,5.70
2018-12-14T03:49:01.658Z,5.70
2018-12-14T03:51:29.197Z,5.60
2018-12-14T03:53:56.859Z,5.70
2018-12-14T03:56:24.495Z,5.60
2018-12-14T03:58:52.047Z,5.60
2018-12-14T04:01:19.582Z,5.50
2018-12-14T04:03:47.133Z,5.40
2018-12-14T04:06:14.664Z,5.30
2018-12-14T04:08:42.325Z,5.40
2018-12-14T04:11:10.090Z,5.40
2018-12-14T04:13:37.619Z,5.30
2018-12-14T04:16:05.229Z,5.60
2018-12-14T04:18:32.824Z,5.30
2018-12-14T04:21:00.374Z,5.40
2018-12-14T04:23:28.062Z,5.30
2018-12-14T04:25:55.639Z,5.60
2018-12-14T04:28:23.336Z,5.60
2018-12-14T04:30:50.865Z,5.80
2018-12-14T04:33:18.839Z,5.70
2018-12-14T04:35:46.481Z,5.60
2018-12-14T04:38:14.085Z,5.80
2018-12-14T04:40:41.723Z,5.80
2018-12-14T04:43:09.396Z,5.50
2018-12-14T04:45:36.928Z,5.50
2018-12-14T04:48:04.446Z,5.50
2018-12-14T04:50:32.000Z,5.60
2018-12-14T04:52:59.589Z,5.60
2018-12-14T04:55:27.123Z,5.70
2018-12-14T04:57:54.702Z,5.80
2018-12-14T05:00:22.362Z,5.80
2018-12-14T05:02:49.955Z,5.70
2018-12-14T05:05:17.475Z,5.90
2018-12-14T05:07:45.046Z,5.80
2018-12-14T05:10:12.597Z,5.90
2018-12-14T05:12:40.273Z,5.90
2018-12-14T05:15:07.990Z,5.90
2018-12-14T05:17:35.810Z,6.00
2018-12-14T05:20:04.419Z,5.90
2018-12-14T05:22:31.971Z,5.80
2018-12-14T05:24:59.631Z,6.00
2018-12-14T05:27:27.222Z,5.90
2018-12-14T05:29:55.043Z,5.90
2018-12-14T05:32:22.607Z,5.90
2018-12-14T05:34:50.222Z,6.00
2018-12-14T05:37:17.767Z,6.00
2018-12-14T05:39:45.350Z,5.90
2018-12-14T05:42:12.914Z,5.80
2018-12-14T05:44:40.476Z,6.00
2018-12-14T05:47:08.022Z,5.80
2018-12-14T05:49:35.812Z,5.80
2018-12-14T05:52:03.385Z,5.90
2018-12-14T05:54:30.971Z,5.80
2018-12-14T05:56:58.582Z,6.00
2018-12-14T05:59:26.164Z,5.50
2018-12-14T06:01:53.694Z,5.60
2018-12-14T06:04:21.310Z,5.60
2018-12-14T06:06:49.197Z,5.50
2018-12-14T06:09:17.036Z,5.60
2018-12-14T06:11:44.617Z,5.30
2018-12-14T06:14:12.181Z,5.40
2018-12-14T06:16:39.762Z,5.40
2018-12-14T06:19:07.388Z,5.40
2018-12-14T06:21:35.086Z,5.30
2018-12-14T06:24:02.666Z,5.30
2018-12-14T06:26:30.282Z,5.30
2018-12-14T06:28:57.857Z,5.70
2018-12-14T06:31:25.463Z,5.40
2018-12-14T06:33:53.072Z,5.50
2018-12-14T06:36:20.622Z,5.50
2018-12-14T06:38:48.205Z,5.50
2018-12-14T06:41:15.958Z,5.50
2018-12-14T06:43:43.493Z,5.80
2018-12-14T06:46:11.148Z,5.80
2018-12-14T06:48:38.690Z,5.30
2018-12-14T06:51:06.740Z,5.40
2018-12-14T06:53:34.418Z,5.60
2018-12-14T06:56:02.901Z,5.50
2018-12-14T06:58:30.447Z,5.40
2018-12-14T07:00:58.062Z,5.10
2018-12-14T07:03:25.604Z,5.30
2018-12-14T07:05:53.151Z,5.50
2018-12-14T07:08:20.695Z,5.40
2018-12-14T07:10:48.292Z,5.30
2018-12-14T07:13:21.734Z,5.70
2018-12-14T07:15:46.338Z,5.40
2018-12-14T07:18:13.888Z,5.80
2018-12-14T07:20:41.509Z,5.40
2018-12-14T07:23:09.088Z,5.40
2018-12-14T07:25:36.754Z,5.30
2018-12-14T07:28:04.313Z,5.50
2018-12-14T07:30:31.953Z,5.70
2018-12-14T07:32:59.619Z,5.50
2018-12-14T07:35:27.409Z,5.40
2018-12-14T07:37:54.982Z,5.60
2018-12-14T07:40:22.532Z,5.40
2018-12-14T07:42:50.087Z,5.50
2018-12-14T07:45:17.866Z,5.60
2018-12-14T07:47:45.418Z,5.50
2018-12-14T07:50:13.096Z,5.50
2018-12-14T07:52:40.628Z,5.50
2018-12-14T07:55:08.238Z,5.80
2018-12-14T07:57:35.996Z,5.60
2018-12-14T08:00:05.427Z,5.40
2018-12-14T08:02:32.969Z,5.70
2018-12-14T08:05:00.564Z,5.90
2018-12-14T08:07:28.139Z,5.90
2018-12-14T08:09:55.766Z,6.20
2018-12-14T08:12:23.330Z,5.90
2018-12-14T08:14:50.897Z,6.00
2018-12-14T08:17:18.559Z,6.00
2018-12-14T08:19:46.080Z,5.80
2018-12-14T08:22:13.687Z,5.70
2018-12-14T08:24:41.253Z,6.00
2018-12-14T08:27:08.846Z,5.50
2018-12-14T08:29:36.527Z,5.50
2018-12-14T08:32:04.067Z,5.90
2018-12-14T08:34:31.816Z,5.90
2018-12-14T08:36:59.342Z,5.70
2018-12-14T08:39:26.958Z,5.70
2018-12-14T08:41:54.492Z,5.70
2018-12-14T08:44:22.069Z,5.70
2018-12-14T08:46:49.667Z,5.40
2018-12-14T08:49:17.232Z,5.40
2018-12-14T08:51:44.773Z,5.70
2018-12-14T08:54:12.345Z,5.50
2018-12-14T08:56:39.901Z,5.50
2018-12-14T08:59:07.461Z,5.60
2018-12-14T09:01:35.178Z,5.60
2018-12-14T09:04:02.705Z,5.70
2018-12-14T09:06:30.274Z,5.70
2018-12-14T09:08:58.238Z,5.50
2018-12-14T09:11:25.776Z,5.60
2018-12-14T09:13:53.567Z,5.70
2018-12-14T09:16:21.143Z,5.60
2018-12-14T09:18:49.597Z,5.70
2018-12-14T09:21:17.158Z,5.60
2018-12-14T09:23:44.715Z,5.90
2018-12-14T09:26:12.572Z,5.50
2018-12-14T09:28:40.306Z,5.50
2018-12-14T09:31:07.988Z,5.50
2018-12-14T09:33:35.539Z,5.90
2018-12-14T09:36:03.084Z,5.70
2018-12-14T09:38:30.767Z,6.10
2018-12-14T09:40:58.315Z,7.50
2018-12-14T09:43:27.548Z,7.90
2018-12-14T09:45:55.198Z,8.00
2018-12-14T09:48:22.845Z,8.20
2018-12-14T09:50:50.385Z,8.40
2018-12-14T09:53:17.909Z,8.10
2018-12-14T09:55:45.714Z,8.50
2018-12-14T09:58:13.262Z,8.70
2018-12-14T10:00:41.891Z,8.60
2018-12-14T10:03:09.441Z,8.10
2018-12-14T10:05:37.159Z,7.40
2018-12-14T10:08:04.906Z,7.20
2018-12-14T10:10:32.562Z,6.70
2018-12-14T10:13:00.126Z,6.70
2018-12-14T10:15:27.719Z,7.10
2018-12-14T10:17:55.363Z,7.00
2018-12-14T10:20:22.935Z,6.80
2018-12-14T10:22:50.441Z,6.60
2018-12-14T10:25:17.991Z,6.80
2018-12-14T10:27:45.525Z,6.50
2018-12-14T10:30:13.365Z,6.60
2018-12-14T10:32:40.927Z,6.80
2018-12-14T10:35:09.792Z,6.50
2018-12-14T10:37:37.493Z,6.70
2018-12-14T10:40:09.396Z,6.80
2018-12-14T10:42:36.961Z,6.70
2018-12-14T10:45:05.902Z,6.70
2018-12-14T10:47:33.711Z,6.50
2018-12-14T10:50:01.264Z,6.40
2018-12-14T10:52:28.853Z,6.40
2018-12-14T10:54:56.484Z,6.10
2018-12-14T10:57:24.064Z,6.50
2018-12-14T10:59:51.686Z,6.30
2018-12-14T11:02:19.213Z,6.20
2018-12-14T11:04:46.735Z,6.20
2018-12-14T11:07:14.290Z,6.10
2018-12-14T11:09:41.822Z,6.40
2018-12-14T11:12:09.377Z,6.50
2018-12-14T11:14:37.017Z,6.50
2018-12-14T11:17:05.614Z,6.40
2018-12-14T11:19:33.361Z,6.40
2018-12-14T11:22:00.885Z,6.50
2018-12-14T11:24:28.545Z,6.80
2018-12-14T11:26:56.107Z,6.60
2018-12-14T11:29:23.691Z,6.70
2018-12-14T11:31:51.231Z,6.70
2018-12-14T11:34:18.823Z,6.70
2018-12-14T11:36:46.534Z,6.60
2018-12-14T11:39:14.065Z,6.50
2018-12-14T11:41:41.826Z,6.60
2018-12-14T11:44:09.408Z,6.50
2018-12-14T11:46:36.976Z,6.70
2018-12-14T11:49:04.555Z,6.40
2018-12-14T11:51:32.181Z,6.40
2018-12-14T11:53:59.766Z,6.50
2018-12-14T11:56:27.323Z,6.70
2018-12-14T11:58:54.949Z,6.70
2018-12-14T12:01:22.558Z,6.70
2018-12-14T12:03:50.115Z,6.40
2018-12-14T12:06:17.770Z,6.60
2018-12-14T12:08:45.367Z,6.30
2018-12-14T12:11:13.044Z,6.40
2018-12-14T12:13:40.614Z,6.40
2018-12-14T12:16:08.183Z,6.40
2018-12-14T12:18:35.739Z,6.70
2018-12-14T12:21:03.396Z,6.40
2018-12-14T12:23:31.000Z,6.70
2018-12-14T12:25:58.537Z,6.50
2018-12-14T12:28:26.097Z,6.70
2018-12-14T12:30:53.679Z,6.50
2018-12-14T12:33:21.281Z,6.30
2018-12-14T12:35:48.990Z,6.50
2018-12-14T12:38:16.526Z,6.50
2018-12-14T12:40:44.090Z,6.40
2018-12-14T12:43:11.691Z,6.50
2018-12-14T12:45:39.391Z,6.40
2018-12-14T12:48:06.971Z,6.50
2018-12-14T12:50:34.530Z,6.50
2018-12-14T12:53:02.152Z,6.50
2018-12-14T12:55:30.656Z,6.30
2018-12-14T12:57:58.251Z,6.50
2018-12-14T13:00:25.927Z,6.20
2018-12-14T13:02:53.459Z,6.50
2018-12-14T13:05:21.021Z,6.20
2018-12-14T13:07:48.665Z,6.30
2018-12-14T13:10:16.229Z,6.50
2018-12-14T13:12:43.797Z,6.40
2018-12-14T13:15:11.378Z,6.50
2018-12-14T13:17:38.983Z,6.50
2018-12-14T13:20:06.762Z,6.00
2018-12-14T13:22:34.564Z,6.20
2018-12-14T13:25:02.114Z,6.30
2018-12-14T13:27:29.636Z,6.30
2018-12-14T13:29:57.238Z,6.40
2018-12-14T13:32:24.828Z,6.20
2018-12-14T13:34:52.383Z,6.10
2018-12-14T13:37:19.965Z,6.10
2018-12-14T13:39:47.641Z,6.40
2018-12-14T13:42:15.235Z,6.20
2018-12-14T13:44:46.523Z,6.20
2018-12-14T13:47:12.789Z,6.20
2018-12-14T13:49:40.427Z,6.20
2018-12-14T13:52:08.001Z,6.00
2018-12-14T13:54:35.630Z,6.20
2018-12-14T13:57:03.201Z,6.20
2018-12-14T13:59:30.735Z,6.00
2018-12-14T14:01:58.287Z,6.10
2018-12-14T14:04:25.848Z,6.00
2018-12-14T14:06:53.403Z,6.20
2018-12-14T14:09:20.975Z,6.00
2018-12-14T14:11:48.575Z,6.10
2018-12-14T14:14:16.283Z,6.10
2018-12-14T14:16:43.978Z,6.00
2018-12-14T14:19:11.523Z,6.20
2018-12-14T14:21:39.099Z,6.50
2018-12-14T14:24:06.672Z,6.30
2018-12-14T14:26:34.239Z,6.40
2018-12-14T14:29:01.863Z,6.50
2018-12-14T14:31:29.458Z,6.30
2018-12-14T14:33:57.038Z,6.50
2018-12-14T14:36:24.585Z,6.40
2018-12-14T14:38:52.916Z,6.30
2018-12-14T14:41:20.601Z,6.50
2018-12-14T14:43:48.152Z,6.40
2018-12-14T14:46:15.703Z,6.50
2018-12-14T14:48:43.413Z,6.30
2018-12-14T14:51:11.131Z,6.40
2018-12-14T14:53:38.749Z,6.50
2018-12-14T14:56:06.416Z,6.50
2018-12-14T14:58:34.081Z,6.30
2018-12-14T15:01:01.780Z,6.40
2018-12-14T15:03:29.500Z,6.40
2018-12-14T15:05:57.163Z,6.50
2018-12-14T15:08:24.687Z,6.50
2018-12-14T15:10:52.243Z,6.40
2018-12-14T15:13:19.830Z,6.40
2018-12-14T15:15:47.367Z,6.50
2018-12-14T15:18:14.941Z,6.30
2018-12-14T15:20:42.645Z,6.50
2018-12-14T15:23:10.238Z,6.50
2018-12-14T15:25:37.876Z,6.30
2018-12-14T15:28:05.422Z,6.20
2018-12-14T15:30:32.979Z,6.50
2018-12-14T15:33:01.506Z,6.30
2018-12-14T15:35:29.184Z,6.40
2018-12-14T15:37:56.749Z,6.40
2018-12-14T15:40:24.377Z,6.30
2018-12-14T15:42:52.007Z,6.00
2018-12-14T15:45:19.557Z,6.50
2018-12-14T15:47:47.124Z,6.40
2018-12-14T15:50:14.688Z,6.50
2018-12-14T15:52:42.250Z,6.50
2018-12-14T15:55:09.776Z,6.40
2018-12-14T15:57:37.354Z,6.50
2018-12-14T16:00:06.678Z,6.50
2018-12-14T16:02:34.218Z,6.40
2018-12-14T16:05:01.787Z,6.40
2018-12-14T16:07:29.348Z,6.50
2018-12-14T16:09:57.068Z,6.40
2018-12-14T16:12:24.635Z,6.50
2018-12-14T16:14:52.268Z,6.50
2018-12-14T16:17:19.918Z,6.50
2018-12-14T16:19:47.574Z,6.40
2018-12-14T16:22:15.136Z,6.50
2018-12-14T16:24:42.706Z,6.30
2018-12-14T16:27:10.255Z,6.40
2018-12-14T16:29:37.958Z,6.40
2018-12-14T16:32:05.523Z,6.10
2018-12-14T16:34:33.145Z,6.20
2018-12-14T16:37:01.820Z,6.20
2018-12-14T16:39:29.388Z,6.30
2018-12-14T16:41:56.956Z,6.20
2018-12-14T16:44:24.508Z,6.40
2018-12-14T16:46:52.231Z,6.20
2018-12-14T16:49:20.013Z,6.00
2018-12-14T16:51:47.584Z,6.50
2018-12-14T16:54:15.208Z,6.40
2018-12-14T16:56:42.914Z,6.40
2018-12-14T16:59:10.468Z,6.10
2018-12-14T17:01:38.137Z,6.50
2018-12-14T17:04:05.956Z,6.40
2018-12-14T17:06:33.619Z,6.40
2018-12-14T17:09:01.192Z,6.50
2018-12-14T17:11:29.118Z,6.50
2018-12-14T17:13:56.697Z,6.60
2018-12-14T17:16:24.233Z,6.70
2018-12-14T17:18:51.866Z,6.70
2018-12-14T17:21:19.482Z,6.60
2018-12-14T17:23:47.061Z,6.70
2018-12-14T17:26:14.639Z,6.70
2018-12-14T17:28:42.226Z,6.70
2018-12-14T17:31:09.781Z,6.70
2018-12-14T17:33:37.533Z,6.70
2018-12-14T17:36:05.044Z,6.70
2018-12-14T17:38:32.643Z,6.60
2018-12-14T17:41:00.207Z,6.70
2018-12-14T17:43:27.742Z,6.60
2018-12-14T17:45:55.428Z,6.60
2018-12-14T17:48:23.052Z,6.70
2018-12-14T17:50:51.273Z,6.70
2018-12-14T17:53:19.053Z,6.50
2018-12-14T17:55:46.673Z,6.70
2018-12-14T17:58:14.383Z,6.30
2018-12-14T18:00:41.985Z,6.60
2018-12-14T18:03:09.545Z,6.70
2018-12-14T18:05:37.087Z,6.40
2018-12-14T18:08:04.700Z,6.50
2018-12-14T18:10:32.246Z,6.30
2018-12-14T18:12:59.812Z,6.50
2018-12-14T18:15:27.405Z,6.50
2018-12-14T18:17:54.997Z,6.50
2018-12-14T18:20:22.519Z,6.20
2018-12-14T18:22:50.310Z,6.50
2018-12-14T18:25:18.240Z,6.50
2018-12-14T18:27:45.775Z,6.50
2018-12-14T18:30:13.634Z,6.50
2018-12-14T18:32:41.162Z,6.40
2018-12-14T18:35:08.771Z,6.30
2018-12-14T18:37:36.439Z,6.80
2018-12-14T18:40:06.008Z,6.30
2018-12-14T18:42:33.605Z,6.30
2018-12-14T18:45:02.067Z,6.40
2018-12-14T18:47:29.583Z,6.50
2018-12-14T18:49:57.362Z,6.50
2018-12-14T18:52:24.918Z,6.10
2018-12-14T18:54:52.488Z,6.20
2018-12-14T18:57:20.178Z,6.20
2018-12-14T18:59:47.744Z,6.30
2018-12-14T19:02:15.277Z,6.20
2018-12-14T19:04:42.890Z,6.30
2018-12-14T19:07:10.546Z,6.20
2018-12-14T19:09:38.274Z,6.40
2018-12-14T19:12:05.917Z,6.40
2018-12-14T19:14:33.483Z,6.40
2018-12-14T19:17:01.003Z,6.40
2018-12-14T19:19:28.602Z,6.50
2018-12-14T19:21:56.238Z,6.20
2018-12-14T19:24:23.753Z,6.20
2018-12-14T19:26:51.317Z,6.40
2018-12-14T19:29:18.868Z,6.50
2018-12-14T19:31:46.398Z,6.20
2018-12-14T19:34:14.168Z,6.30
2018-12-14T19:36:41.832Z,6.50
2018-12-14T19:39:09.467Z,6.50
2018-12-14T19:41:37.050Z,6.50
2018-12-14T19:44:04.597Z,6.40
2018-12-14T19:46:32.161Z,6.40
2018-12-14T19:48:59.747Z,6.40
2018-12-14T19:51:27.401Z,6.30
2018-12-14T19:53:54.960Z,6.40
2018-12-14T19:56:22.565Z,6.20
2018-12-14T19:58:50.255Z,6.40
2018-12-14T20:01:17.870Z,6.50
2018-12-14T20:03:45.603Z,6.40
2018-12-14T20:06:13.242Z,6.20
2018-12-14T20:08:40.786Z,6.40
2018-12-14T20:11:08.435Z,6.30
2018-12-14T20:13:35.989Z,6.40
2018-12-14T20:16:03.530Z,6.60
2018-12-14T20:18:31.164Z,6.30
2018-12-14T20:20:58.814Z,6.40
2018-12-14T20:23:26.374Z,6.40
2018-12-14T20:25:53.986Z,6.30
2018-12-14T20:28:21.543Z,6.50
2018-12-14T20:30:49.054Z,6.40
2018-12-14T20:33:16.873Z,6.50
2018-12-14T20:35:44.451Z,6.50
2018-12-14T20:38:12.079Z,6.50
2018-12-14T20:40:39.667Z,6.50
2018-12-14T20:43:07.197Z,6.50
2018-12-14T20:45:34.797Z,6.40
2018-12-14T20:48:02.440Z,6.40
2018-12-14T20:50:29.975Z,6.50
2018-12-14T20:52:57.509Z,6.50
2018-12-14T20:55:26.184Z,6.50
2018-12-14T20:57:53.725Z,6.40
2018-12-14T21:00:21.621Z,6.50
2018-12-14T21:02:49.339Z,6.30
2018-12-14T21:05:16.877Z,6.50
2018-12-14T21:07:45.366Z,6.40
2018-12-14T21:10:13.223Z,6.20
2018-12-14T21:12:40.741Z,6.20
2018-12-14T21:15:08.378Z,6.40
2018-12-14T21:17:35.986Z,6.20
2018-12-14T21:20:04.716Z,6.50
2018-12-14T21:22:32.256Z,6.20
2018-12-14T21:24:59.818Z,6.50
2018-12-14T21:27:27.469Z,6.40
2018-12-14T21:29:54.994Z,6.50
2018-12-14T21:32:22.722Z,6.40
2018-12-14T21:34:50.254Z,6.40
2018-12-14T21:37:18.675Z,6.40
2018-12-14T21:39:46.844Z,6.60
2018-12-14T21:42:14.382Z,6.50
2018-12-14T21:44:42.825Z,6.50
2018-12-14T21:47:10.442Z,6.50
2018-12-14T21:49:39.950Z,6.40
2018-12-14T21:52:07.614Z,6.30
2018-12-14T21:54:35.470Z,6.50
2018-12-14T21:57:03.102Z,6.40
2018-12-14T21:59:30.661Z,6.40
2018-12-14T22:01:58.235Z,6.50
2018-12-14T22:04:25.799Z,6.40
2018-12-14T22:06:53.319Z,6.20
2018-12-14T22:09:20.886Z,6.20
2018-12-14T22:11:48.422Z,6.00
2018-12-14T22:14:16.030Z,6.40
2018-12-14T22:16:43.589Z,6.40
2018-12-14T22:19:11.219Z,6.40
2018-12-14T22:21:39.213Z,6.30
2018-12-14T22:24:07.720Z,6.50
2018-12-14T22:26:35.245Z,6.10
2018-12-14T22:29:02.907Z,6.20
2018-12-14T22:31:30.496Z,6.00
2018-12-14T22:33:58.081Z,6.10
2018-12-14T22:36:25.638Z,6.00
2018-12-14T22:38:53.162Z,6.00
2018-12-14T22:41:20.697Z,6.20
2018-12-14T22:43:48.407Z,6.20
2018-12-14T22:46:15.918Z,6.00
2018-12-14T22:48:43.491Z,6.00
2018-12-14T22:51:11.538Z,6.00
2018-12-14T22:53:39.206Z,6.10
2018-12-14T22:56:06.818Z,6.00
2018-12-14T22:58:34.367Z,6.20
2018-12-14T23:01:01.997Z,6.10
2018-12-14T23:03:29.514Z,6.20
2018-12-14T23:05:58.067Z,6.00
2018-12-14T23:08:25.607Z,6.10
2018-12-14T23:10:53.183Z,6.20
2018-12-14T23:13:21.059Z,6.00
2018-12-14T23:15:48.595Z,6.40
2018-12-14T23:18:17.516Z,6.50
2018-12-14T23:20:45.084Z,6.50
2018-12-14T23:23:12.630Z,6.00
2018-12-14T23:25:40.184Z,6.20
2018-12-14T23:28:08.891Z,6.20
2018-12-14T23:30:36.415Z,6.40
2018-12-14T23:33:04.173Z,6.50
2018-12-14T23:35:31.719Z,6.30
2018-12-14T23:37:59.354Z,6.40
2018-12-14T23:40:26.925Z,6.00
2018-12-14T23:42:54.576Z,6.40
2018-12-14T23:45:22.194Z,6.20
2018-12-14T23:47:49.694Z,6.40
2018-12-14T23:50:17.238Z,6.00
2018-12-14T23:52:44.878Z,6.10
2018-12-14T23:55:12.410Z,6.20
2018-12-14T23:57:40.389Z,6.30
